Time;durP1;ratioP1;P1;durP2;ratioP2;P2;SDS_P1;SDS_P2;PMS_P1;PMS_P2;Temp;Humidity;BMP_temperature;BMP_pressure;BME280_temperature;BME280_humidity;BME280_pressure;Samples;Min_cycle;Max_cycle;Signal;HPM_P1;HPM_P2
2022/06/29 00:02:17;;;;;;;6.97;4.15;;;;;;;16.94;69.55;101542.00;5071997;28;20067;-70
2022/06/29 00:04:42;;;;;;;7.85;4.05;;;;;;;16.87;69.48;101543.13;5071431;28;20111;-71
2022/06/29 00:07:08;;;;;;;7.53;4.20;;;;;;;16.79;69.31;101540.81;5071783;28;20073;-71
2022/06/29 00:09:33;;;;;;;5.25;4.18;;;;;;;16.75;69.71;101543.63;5072497;28;20028;-71
2022/06/29 00:11:58;;;;;;;6.45;4.10;;;;;;;16.73;70.89;101545.41;5072305;28;20511;-71
2022/06/29 00:14:23;;;;;;;5.15;3.88;;;;;;;16.68;70.80;101539.47;5065699;28;20066;-71
2022/06/29 00:16:49;;;;;;;8.45;4.65;;;;;;;16.66;70.11;101543.94;5069874;28;20029;-71
2022/06/29 00:19:14;;;;;;;4.68;3.92;;;;;;;16.59;70.47;101538.91;5067229;28;20039;-71
2022/06/29 00:21:39;;;;;;;9.63;4.47;;;;;;;16.59;71.07;101535.41;5064705;28;20028;-71
2022/06/29 00:24:05;;;;;;;6.10;4.32;;;;;;;16.49;70.56;101524.38;5071692;28;20016;-71
2022/06/29 00:26:31;;;;;;;4.90;4.22;;;;;;;16.50;72.04;101522.59;5071295;28;20109;-71
2022/06/29 00:28:56;;;;;;;6.45;4.60;;;;;;;16.49;72.92;101519.09;5071172;28;20056;-71
2022/06/29 00:31:21;;;;;;;6.68;4.45;;;;;;;16.47;72.54;101528.81;5067360;28;20041;-70
2022/06/29 00:33:47;;;;;;;9.30;4.88;;;;;;;16.48;73.64;101521.78;5071038;28;20051;-71
2022/06/29 00:36:12;;;;;;;5.75;4.35;;;;;;;16.43;72.08;101527.22;5068406;28;20033;-71
2022/06/29 00:38:37;;;;;;;8.57;4.90;;;;;;;16.38;72.89;101522.16;5066321;28;20032;-71
2022/06/29 00:41:03;;;;;;;6.47;4.93;;;;;;;16.38;73.50;101527.41;5070280;28;20499;-70
2022/06/29 00:43:28;;;;;;;9.18;4.60;;;;;;;16.38;73.83;101524.78;5070267;28;20024;-71
2022/06/29 00:45:53;;;;;;;6.35;4.40;;;;;;;16.25;73.06;101506.84;5070230;28;20029;-71
2022/06/29 00:48:19;;;;;;;6.80;4.90;;;;;;;16.29;73.16;101513.72;5061475;28;20521;-71
2022/06/29 00:50:46;;;;;;;6.78;4.93;;;;;;;16.25;73.12;101512.09;5071598;28;20029;-71
2022/06/29 00:53:15;;;;;;;5.88;5.28;;;;;;;16.26;73.90;101513.84;5067838;28;20024;-71
2022/06/29 00:55:44;;;;;;;7.50;5.35;;;;;;;16.21;75.27;101511.34;5050738;28;20047;-70
2022/06/29 00:58:10;;;;;;;6.85;5.38;;;;;;;16.19;75.15;101504.47;5056778;28;20037;-71
2022/06/29 01:00:36;;;;;;;6.65;5.13;;;;;;;16.18;75.08;101510.59;5062849;28;20545;-71
2022/06/29 01:03:02;;;;;;;7.50;4.97;;;;;;;16.13;75.41;101509.00;5070781;28;20032;-70
2022/06/29 01:05:29;;;;;;;6.78;5.22;;;;;;;16.03;74.81;101499.75;5071816;28;20024;-70
2022/06/29 01:07:55;;;;;;;8.23;5.38;;;;;;;16.03;75.05;101501.50;5060661;28;20028;-71
2022/06/29 01:10:21;;;;;;;7.65;5.28;;;;;;;15.98;75.55;101504.28;5051131;28;20045;-71
2022/06/29 01:12:48;;;;;;;6.65;5.32;;;;;;;15.96;75.48;101500.88;5065387;28;20455;-71
2022/06/29 01:15:13;;;;;;;7.95;6.00;;;;;;;15.95;75.58;101509.66;5071834;28;20030;-71
2022/06/29 01:17:39;;;;;;;8.88;5.88;;;;;;;15.86;75.59;101496.84;5065003;28;20112;-71
2022/06/29 01:20:05;;;;;;;6.82;5.20;;;;;;;15.89;76.35;101499.34;5069826;28;20016;-71
2022/06/29 01:22:30;;;;;;;6.93;5.50;;;;;;;15.86;75.70;101499.50;5069551;28;20449;-70
2022/06/29 01:24:55;;;;;;;6.88;5.90;;;;;;;15.87;76.22;101503.81;5054020;28;20086;-71
2022/06/29 01:27:23;;;;;;;8.88;6.20;;;;;;;15.86;76.48;101499.50;5051492;28;20096;-71
2022/06/29 01:29:48;;;;;;;9.02;6.03;;;;;;;15.88;75.97;101501.13;5070792;28;20031;-71
2022/06/29 01:32:14;;;;;;;7.03;6.30;;;;;;;15.86;77.08;101494.22;5070995;28;20021;-70
2022/06/29 01:34:39;;;;;;;7.53;6.00;;;;;;;15.84;76.97;101493.41;5069551;28;20033;-71
2022/06/29 01:37:05;;;;;;;8.75;6.35;;;;;;;15.77;76.12;101489.28;5068844;28;20035;-71
2022/06/29 01:39:30;;;;;;;8.68;6.30;;;;;;;15.75;75.73;101496.34;5062048;28;20034;-70
2022/06/29 01:41:56;;;;;;;6.72;6.07;;;;;;;15.80;76.79;101500.56;5070770;28;20381;-70
2022/06/29 01:44:22;;;;;;;9.15;6.38;;;;;;;15.76;77.21;101488.44;5071174;28;20099;-71
2022/06/29 01:46:47;;;;;;;9.38;6.75;;;;;;;15.73;77.43;101485.03;5072959;28;20491;-71
2022/06/29 01:49:13;;;;;;;7.80;6.18;;;;;;;15.72;76.90;101491.19;5073599;28;20031;-71
2022/06/29 01:51:39;;;;;;;8.68;6.35;;;;;;;15.66;76.70;101482.63;5067789;28;20032;-71
2022/06/29 01:54:04;;;;;;;10.38;6.90;;;;;;;15.64;77.77;101483.56;5074802;28;20037;-71
2022/06/29 01:56:29;;;;;;;7.55;6.75;;;;;;;15.57;76.91;101475.03;5075026;28;20040;-71
2022/06/29 01:58:55;;;;;;;7.07;6.38;;;;;;;15.54;78.19;101483.00;5066905;28;20044;-71
2022/06/29 02:01:20;;;;;;;7.75;6.88;;;;;;;15.50;78.30;101481.41;5059035;28;20017;-70
2022/06/29 02:03:46;;;;;;;8.40;7.25;;;;;;;15.53;78.93;101483.94;5061609;28;20028;-70
2022/06/29 02:06:11;;;;;;;9.95;7.50;;;;;;;15.45;78.57;101467.56;5072730;28;20115;-71
2022/06/29 02:08:37;;;;;;;10.85;6.93;;;;;;;15.43;80.00;101479.88;5070343;28;20028;-71
2022/06/29 02:11:03;;;;;;;7.97;7.18;;;;;;;15.38;78.23;101479.19;5070975;28;20218;-70
2022/06/29 02:13:29;;;;;;;8.18;7.20;;;;;;;15.35;79.43;101477.50;5074274;28;20021;-70
2022/06/29 02:15:54;;;;;;;8.82;7.22;;;;;;;15.32;79.03;101471.50;5067894;28;20029;-71
2022/06/29 02:18:19;;;;;;;9.20;7.18;;;;;;;15.30;79.25;101474.16;5074126;28;20107;-71
2022/06/29 02:20:45;;;;;;;11.05;7.35;;;;;;;15.27;80.20;101473.41;5065903;28;20025;-71
2022/06/29 02:23:10;;;;;;;7.78;6.85;;;;;;;15.29;79.48;101477.69;5074711;28;20017;-70
2022/06/29 02:25:35;;;;;;;9.15;7.07;;;;;;;15.35;79.78;101477.50;5074365;28;20040;-71
2022/06/29 02:28:00;;;;;;;12.15;7.45;;;;;;;15.33;78.88;101466.19;5065376;28;20057;-71
2022/06/29 02:35:54;;;;;;;9.02;7.13;;;;;;;15.43;79.12;101480.75;5073485;28;20036;-70
2022/06/29 02:38:19;;;;;;;11.05;7.72;;;;;;;15.42;79.28;101470.28;5074221;28;20020;-70
2022/06/29 02:40:44;;;;;;;11.20;7.28;;;;;;;15.42;80.56;101468.50;5063625;28;20029;-70
2022/06/29 02:43:10;;;;;;;11.85;8.02;;;;;;;15.36;80.33;101467.84;5074116;28;20031;-70
2022/06/29 02:45:36;;;;;;;9.35;7.75;;;;;;;15.35;80.43;101466.16;5066744;28;20108;-70
2022/06/29 02:48:01;;;;;;;9.07;7.88;;;;;;;15.30;80.22;101463.66;5066771;28;20039;-70
2022/06/29 02:50:27;;;;;;;10.05;7.47;;;;;;;15.27;79.97;101462.91;5072714;28;20487;-70
2022/06/29 02:52:53;;;;;;;9.57;8.23;;;;;;;15.21;79.93;101454.31;5073542;28;20404;-70
2022/06/29 02:55:18;;;;;;;9.13;7.70;;;;;;;15.23;80.12;101460.38;5072570;28;20080;-70
2022/06/29 02:57:43;;;;;;;11.50;8.25;;;;;;;15.19;81.10;101452.66;5067888;28;20035;-70
2022/06/29 03:00:11;;;;;;;12.27;7.90;;;;;;;15.18;80.70;101449.19;5053905;28;20128;-70
2022/06/29 03:02:36;;;;;;;10.23;8.05;;;;;;;15.15;80.36;101454.53;5052781;28;20384;-70
2022/06/29 03:05:02;;;;;;;9.60;7.50;;;;;;;15.16;81.53;101453.59;5061581;28;20032;-70
2022/06/29 03:07:27;;;;;;;10.25;7.90;;;;;;;15.12;80.89;101443.25;5070346;28;20109;-70
2022/06/29 03:09:52;;;;;;;8.95;7.25;;;;;;;15.14;81.90;101452.81;5071798;28;20041;-70
2022/06/29 03:12:18;;;;;;;11.32;7.70;;;;;;;15.12;80.84;101444.13;5074063;28;20060;-70
2022/06/29 03:14:43;;;;;;;9.55;8.23;;;;;;;15.11;81.91;101436.31;5072291;28;20036;-70
2022/06/29 03:17:09;;;;;;;11.25;7.75;;;;;;;15.09;80.80;101438.97;5073158;28;20028;-70
2022/06/29 03:19:34;;;;;;;14.27;7.95;;;;;;;15.11;80.86;101437.16;5069700;28;20032;-70
2022/06/29 03:22:00;;;;;;;8.85;7.63;;;;;;;15.13;80.80;101437.94;5073141;28;20047;-70
2022/06/29 03:24:25;;;;;;;10.52;8.43;;;;;;;15.10;81.42;101434.56;5071425;28;20055;-70
2022/06/29 03:26:50;;;;;;;9.90;8.20;;;;;;;15.09;82.24;101433.72;5071589;28;20099;-70
2022/06/29 03:29:15;;;;;;;12.27;8.07;;;;;;;15.05;81.17;101434.72;5072709;28;20056;-70
2022/06/29 03:31:41;;;;;;;8.27;7.47;;;;;;;15.04;80.83;101425.16;5072655;28;20028;-70
2022/06/29 03:34:06;;;;;;;14.95;8.07;;;;;;;15.03;82.34;101423.41;5073110;28;20024;-70
2022/06/29 03:36:31;;;;;;;8.68;7.78;;;;;;;15.05;81.93;101426.00;5073103;28;20111;-70
2022/06/29 03:38:56;;;;;;;9.68;8.10;;;;;;;15.03;82.62;101417.31;5072090;28;20031;-70
2022/06/29 03:41:22;;;;;;;9.30;7.97;;;;;;;14.98;82.65;101417.47;5068488;28;20044;-70
2022/06/29 03:43:47;;;;;;;8.93;7.82;;;;;;;14.94;82.12;101421.06;5066210;28;20029;-70
2022/06/29 03:46:12;;;;;;;10.23;7.88;;;;;;;14.87;81.74;101412.53;5064424;28;20029;-70
2022/06/29 03:48:38;;;;;;;9.07;7.82;;;;;;;14.89;82.22;101412.50;5072841;28;20021;-70
2022/06/29 03:51:03;;;;;;;9.27;8.10;;;;;;;14.93;82.63;101422.00;5068429;28;20032;-70
2022/06/29 03:53:28;;;;;;;8.85;7.95;;;;;;;14.92;83.40;101417.66;5070590;28;20439;-70
2022/06/29 03:55:54;;;;;;;10.48;8.00;;;;;;;14.90;83.15;101416.84;5072297;28;20098;-70
2022/06/29 03:58:19;;;;;;;9.45;7.78;;;;;;;14.90;83.97;101409.81;5062708;28;20037;-70
2022/06/29 04:00:44;;;;;;;10.02;8.20;;;;;;;14.87;82.97;101411.69;5052142;28;20447;-70
2022/06/29 04:03:10;;;;;;;10.02;8.50;;;;;;;14.84;84.26;101396.88;5059238;28;20028;-70
2022/06/29 04:05:35;;;;;;;10.77;7.80;;;;;;;14.82;83.42;101406.59;5065512;28;20493;-70
2022/06/29 04:08:00;;;;;;;9.75;7.80;;;;;;;14.83;84.79;101396.94;5072210;28;20115;-70
2022/06/29 04:10:25;;;;;;;10.23;8.55;;;;;;;14.87;84.54;101406.44;5072628;28;20098;-70
2022/06/29 04:12:51;;;;;;;12.13;8.38;;;;;;;14.87;83.88;101395.94;5071142;28;20029;-70
2022/06/29 04:15:16;;;;;;;9.15;7.97;;;;;;;14.86;84.50;101402.09;5066813;28;20036;-70
2022/06/29 04:17:41;;;;;;;11.20;8.90;;;;;;;14.87;84.07;101407.28;5067587;28;20033;-70
2022/06/29 04:20:07;;;;;;;11.13;8.13;;;;;;;14.88;84.66;101403.78;5069913;28;20024;-70
2022/06/29 04:22:33;;;;;;;9.20;7.95;;;;;;;14.93;84.86;101403.63;5071541;28;20070;-70
2022/06/29 04:24:59;;;;;;;11.57;7.72;;;;;;;14.92;83.80;101410.63;5069138;28;20033;-70
2022/06/29 04:27:24;;;;;;;12.35;8.00;;;;;;;14.99;85.70;101404.28;5071799;28;20047;-70
2022/06/29 04:29:50;;;;;;;11.48;7.72;;;;;;;15.05;85.18;101405.84;5071626;28;20465;-70
2022/06/29 04:32:15;;;;;;;10.68;8.02;;;;;;;15.10;85.81;101395.19;5071218;28;20041;-70
2022/06/29 04:34:40;;;;;;;9.70;8.35;;;;;;;15.14;86.08;101400.28;5065797;28;20111;-70
2022/06/29 04:37:06;;;;;;;12.52;8.15;;;;;;;15.17;85.78;101391.44;5071810;28;20025;-70
2022/06/29 04:39:31;;;;;;;9.73;8.02;;;;;;;15.22;85.15;101403.50;5070312;28;20039;-70
2022/06/29 04:41:56;;;;;;;12.88;8.45;;;;;;;15.27;85.21;101399.84;5071086;28;20028;-70
2022/06/29 04:44:22;;;;;;;11.05;8.20;;;;;;;15.30;84.86;101397.13;5069378;28;20594;-70
2022/06/29 04:46:47;;;;;;;10.90;7.75;;;;;;;15.35;85.02;101397.84;5055418;28;20044;-70
2022/06/29 04:49:12;;;;;;;12.75;8.63;;;;;;;15.43;84.36;101401.94;5071619;28;20027;-70
2022/06/29 04:51:38;;;;;;;9.52;8.40;;;;;;;15.50;84.56;101397.31;5071631;28;20086;-70
2022/06/29 04:54:04;;;;;;;11.00;8.45;;;;;;;15.55;83.95;101398.00;5071504;28;20029;-70
2022/06/29 04:56:31;;;;;;;10.38;9.20;;;;;;;15.62;84.84;101407.38;5062817;28;20036;-70
2022/06/29 04:58:58;;;;;;;11.77;7.68;;;;;;;15.68;83.58;101398.44;5062689;28;20120;-70
2022/06/29 05:01:25;;;;;;;11.00;8.68;;;;;;;15.74;84.14;101398.25;5051496;28;20028;-70
2022/06/29 05:03:51;;;;;;;12.25;8.55;;;;;;;15.80;83.40;101399.78;5053562;28;20041;-70
2022/06/29 05:06:18;;;;;;;10.95;8.25;;;;;;;15.82;80.74;101392.69;5070854;28;20078;-70
2022/06/29 05:08:44;;;;;;;12.13;8.75;;;;;;;15.89;81.91;101404.69;5068051;28;20036;-71
2022/06/29 05:11:09;;;;;;;13.65;8.77;;;;;;;15.97;82.00;101392.13;5070087;28;20029;-70
2022/06/29 05:13:35;;;;;;;11.93;8.73;;;;;;;16.02;79.41;101395.47;5069532;28;20115;-70
2022/06/29 05:16:00;;;;;;;11.20;8.65;;;;;;;16.07;79.12;101382.13;5070014;28;20024;-70
2022/06/29 05:18:26;;;;;;;10.23;8.20;;;;;;;16.11;80.91;101379.31;5069866;28;20028;-70
2022/06/29 05:20:52;;;;;;;9.18;8.20;;;;;;;16.19;80.46;101380.81;5070632;28;20032;-70
2022/06/29 05:23:18;;;;;;;10.88;8.73;;;;;;;16.28;79.65;101383.91;5065959;28;20047;-70
2022/06/29 05:25:44;;;;;;;11.00;8.15;;;;;;;16.34;80.62;101377.56;5069588;28;20472;-70
2022/06/29 05:28:11;;;;;;;17.90;9.32;;;;;;;16.41;79.54;101381.69;5070154;28;20023;-71
2022/06/29 05:30:37;;;;;;;13.65;8.50;;;;;;;16.46;78.97;101374.47;5059829;28;20055;-70
2022/06/29 05:33:02;;;;;;;12.85;8.50;;;;;;;16.53;79.39;101373.31;5068725;28;20422;-70
2022/06/29 05:35:29;;;;;;;18.45;8.52;;;;;;;16.59;78.46;101375.69;5068846;28;20024;-70
2022/06/29 05:37:54;;;;;;;11.77;7.97;;;;;;;16.67;78.23;101367.47;5070589;28;20039;-70
2022/06/29 05:40:20;;;;;;;9.43;7.93;;;;;;;16.76;78.00;101374.19;5071510;28;20464;-70
2022/06/29 05:42:45;;;;;;;12.98;8.10;;;;;;;16.79;78.73;101364.38;5070708;28;20417;-71
2022/06/29 05:45:10;;;;;;;12.18;8.55;;;;;;;16.91;77.71;101370.09;5070716;28;20020;-70
2022/06/29 05:47:36;;;;;;;12.23;7.93;;;;;;;16.94;77.50;101362.03;5070234;28;20028;-71
2022/06/29 05:50:01;;;;;;;13.98;8.80;;;;;;;17.08;77.78;101370.22;5070762;28;20028;-71
2022/06/29 05:52:27;;;;;;;16.25;8.63;;;;;;;17.13;77.31;101360.34;5071053;28;20024;-70
2022/06/29 05:54:52;;;;;;;10.50;8.02;;;;;;;17.23;78.28;101366.06;5070003;28;20033;-70
2022/06/29 05:57:19;;;;;;;15.45;7.93;;;;;;;17.29;76.89;101369.28;5067688;28;20102;-71
2022/06/29 05:59:46;;;;;;;14.70;7.70;;;;;;;17.40;76.71;101360.94;5057006;28;20029;-71
2022/06/29 06:02:11;;;;;;;9.35;6.95;;;;;;;17.49;75.27;101360.53;5066786;28;20027;-71
2022/06/29 06:04:37;;;;;;;17.25;7.28;;;;;;;17.61;74.99;101366.19;5056403;28;20121;-70
2022/06/29 06:07:02;;;;;;;15.32;7.45;;;;;;;17.71;75.24;101370.13;5065387;28;20108;-70
2022/06/29 06:09:28;;;;;;;10.98;6.93;;;;;;;17.77;74.12;101368.09;5057826;28;20029;-70
2022/06/29 06:11:54;;;;;;;12.00;6.53;;;;;;;17.86;73.45;101374.75;5070136;28;20056;-70
2022/06/29 06:14:19;;;;;;;12.32;6.60;;;;;;;17.90;72.53;101370.19;5071153;28;20055;-70
2022/06/29 06:16:45;;;;;;;15.50;6.82;;;;;;;17.96;73.40;101368.13;5069743;28;20033;-70
2022/06/29 06:19:11;;;;;;;13.27;6.80;;;;;;;18.01;72.26;101352.91;5070379;28;20028;-70
2022/06/29 06:21:37;;;;;;;9.57;6.20;;;;;;;18.05;72.98;101365.97;5070774;28;20028;-70
2022/06/29 06:24:02;;;;;;;9.27;5.10;;;;;;;18.12;71.25;101370.91;5071042;28;20025;-70
2022/06/29 06:26:28;;;;;;;8.48;5.25;;;;;;;18.17;71.26;101368.03;5070271;28;20031;-70
2022/06/29 06:28:53;;;;;;;5.97;4.20;;;;;;;18.24;70.03;101364.19;5060141;28;20028;-70
2022/06/29 06:31:18;;;;;;;8.77;4.43;;;;;;;18.35;68.67;101364.56;5069429;28;20499;-70
2022/06/29 06:33:43;;;;;;;5.38;3.50;;;;;;;18.43;68.78;101362.38;5071973;28;20051;-70
2022/06/29 06:36:09;;;;;;;9.05;4.15;;;;;;;18.56;65.31;101373.22;5074460;28;20111;-70
2022/06/29 06:38:34;;;;;;;6.22;4.20;;;;;;;18.66;66.72;101363.91;5073835;28;20078;-70
2022/06/29 06:43:43;;;;;;;;;;;;;;;18.80;68.29;101365.03;5074426;28;20114;-70
2022/06/29 06:46:09;;;;;;;4.93;3.83;;;;;;;18.94;67.04;101362.59;5074024;28;20367;-70
2022/06/29 06:48:35;;;;;;;8.07;3.90;;;;;;;18.98;66.28;101366.78;5073394;28;20427;-70
2022/06/29 06:51:00;;;;;;;7.22;4.10;;;;;;;19.05;65.64;101359.41;5074166;28;20031;-70
2022/06/29 06:53:26;;;;;;;9.90;4.43;;;;;;;19.12;64.99;101366.94;5074025;28;20025;-70
2022/06/29 06:55:51;;;;;;;8.40;4.35;;;;;;;19.21;65.30;101367.41;5072723;28;20048;-70
2022/06/29 06:58:17;;;;;;;9.18;3.92;;;;;;;19.20;65.08;101361.28;5064892;28;20032;-70
2022/06/29 07:00:43;;;;;;;8.82;3.55;;;;;;;19.37;64.35;101366.53;5053332;28;20029;-70
2022/06/29 07:03:08;;;;;;;4.82;3.33;;;;;;;19.50;63.54;101350.03;5061035;28;20031;-70
2022/06/29 07:05:34;;;;;;;7.97;3.53;;;;;;;19.60;64.76;101359.19;5073682;28;20020;-70
2022/06/29 07:07:59;;;;;;;8.20;4.00;;;;;;;19.73;60.99;101370.00;5073456;28;20070;-71
2022/06/29 07:10:24;;;;;;;8.48;3.78;;;;;;;19.84;61.19;101370.28;5073621;28;20055;-70
2022/06/29 07:12:50;;;;;;;7.28;3.85;;;;;;;19.86;59.69;101369.25;5073105;28;20391;-71
2022/06/29 07:15:15;;;;;;;6.75;3.13;;;;;;;19.94;61.73;101365.34;5073099;28;20028;-70
2022/06/29 07:17:40;;;;;;;6.50;3.42;;;;;;;19.99;60.17;101358.88;5073264;28;20028;-71
2022/06/29 07:20:07;;;;;;;6.20;3.17;;;;;;;20.04;60.22;101371.84;5073406;28;20059;-70
2022/06/29 07:22:33;;;;;;;7.63;2.83;;;;;;;20.16;58.80;101363.22;5072863;28;20444;-70
2022/06/29 07:24:58;;;;;;;5.50;2.80;;;;;;;20.29;57.95;101360.75;5073229;28;20115;-70
2022/06/29 07:27:24;;;;;;;3.45;2.38;;;;;;;20.40;59.17;101362.78;5073580;28;20024;-70
2022/06/29 07:29:52;;;;;;;4.22;2.97;;;;;;;20.47;59.47;101364.16;5072170;28;20031;-70
2022/06/29 07:32:20;;;;;;;6.82;3.13;;;;;;;20.53;57.33;101361.19;5070161;28;20024;-70
2022/06/29 07:34:46;;;;;;;4.10;2.95;;;;;;;20.53;57.32;101347.94;5064956;28;20033;-71
2022/06/29 07:37:12;;;;;;;4.85;2.85;;;;;;;20.69;56.38;101354.06;5072006;28;20383;-70
2022/06/29 07:39:37;;;;;;;5.00;2.60;;;;;;;20.75;57.80;101359.00;5073072;28;20020;-71
2022/06/29 07:42:03;;;;;;;4.57;2.30;;;;;;;20.86;59.02;101355.72;5072617;28;20422;-70
2022/06/29 07:44:30;;;;;;;4.28;2.47;;;;;;;20.92;55.19;101344.78;5072171;28;20124;-71
2022/06/29 07:46:55;;;;;;;4.47;2.55;;;;;;;21.01;55.23;101348.69;5077188;28;20477;-70
2022/06/29 07:49:21;;;;;;;3.13;2.17;;;;;;;21.12;55.28;101348.88;5083597;28;20028;-70
2022/06/29 07:51:47;;;;;;;3.38;2.35;;;;;;;21.23;54.67;101349.13;5072289;28;20025;-70
2022/06/29 07:54:13;;;;;;;5.20;2.45;;;;;;;21.26;53.90;101343.63;5075485;28;20038;-76
2022/06/29 07:56:38;;;;;;;4.00;2.10;;;;;;;21.33;54.58;101349.41;5072686;28;20040;-76
2022/06/29 07:59:04;;;;;;;4.95;2.15;;;;;;;21.41;54.84;101335.72;5056136;28;20040;-76
2022/06/29 08:01:29;;;;;;;3.80;2.05;;;;;;;21.51;56.93;101331.53;5052883;28;20017;-76
2022/06/29 08:03:55;;;;;;;4.72;1.90;;;;;;;21.56;56.03;101342.75;5055783;28;20033;-76
2022/06/29 08:06:22;;;;;;;5.18;2.10;;;;;;;21.71;56.41;101335.63;5060953;28;20392;-76
2022/06/29 08:08:47;;;;;;;4.05;2.10;;;;;;;21.86;52.62;101336.47;5072290;28;20025;-77
2022/06/29 08:11:13;;;;;;;3.17;2.00;;;;;;;22.07;54.15;101331.59;5059452;28;20550;-76
2022/06/29 08:13:38;;;;;;;3.58;1.95;;;;;;;22.18;53.51;101342.41;5058664;28;20036;-76
2022/06/29 08:16:06;;;;;;;2.72;1.80;;;;;;;22.07;52.82;101332.47;5065420;28;20123;-76
2022/06/29 08:18:32;;;;;;;3.72;2.08;;;;;;;22.10;53.44;101331.41;5067302;28;20029;-77
2022/06/29 08:20:57;;;;;;;4.82;2.17;;;;;;;22.14;54.51;101332.94;5069609;28;20028;-77
2022/06/29 08:23:22;;;;;;;3.63;1.83;;;;;;;22.37;53.79;101337.63;5070439;28;20430;-76
2022/06/29 08:25:48;;;;;;;6.05;2.17;;;;;;;22.43;52.31;101339.00;5067702;28;20036;-76
2022/06/29 08:28:13;;;;;;;3.13;1.90;;;;;;;22.55;50.54;101335.56;5061062;28;20021;-76
2022/06/29 08:30:38;;;;;;;3.45;2.10;;;;;;;22.60;52.17;101333.47;5071645;28;20099;-76
2022/06/29 08:33:04;;;;;;;4.65;2.20;;;;;;;22.66;50.58;101332.19;5071506;28;20131;-76
2022/06/29 08:35:30;;;;;;;2.80;1.83;;;;;;;22.75;52.87;101328.91;5072502;28;20013;-76
2022/06/29 08:37:55;;;;;;;2.35;1.90;;;;;;;22.84;50.22;101325.63;5071619;28;20016;-76
2022/06/29 08:40:20;;;;;;;4.85;1.83;;;;;;;22.98;51.82;101323.88;5071677;28;20020;-76
2022/06/29 08:42:46;;;;;;;4.03;2.00;;;;;;;23.07;52.02;101329.44;5071613;28;20020;-76
2022/06/29 08:45:14;;;;;;;4.28;1.83;;;;;;;23.05;50.73;101323.38;5071672;28;20028;-76
2022/06/29 08:47:42;;;;;;;3.13;1.90;;;;;;;23.05;54.85;101323.38;5071511;28;20056;-72
2022/06/29 08:50:09;;;;;;;3.28;2.10;;;;;;;23.09;52.27;101316.03;5071806;28;20024;-72
2022/06/29 08:52:36;;;;;;;5.70;2.53;;;;;;;23.13;48.30;101321.03;5071690;28;20034;-72
2022/06/29 08:55:04;;;;;;;7.93;1.98;;;;;;;23.26;50.64;101326.38;5070344;28;20460;-72
2022/06/29 08:57:29;;;;;;;5.97;2.30;;;;;;;23.42;52.13;101315.50;5068515;28;20048;-72
2022/06/29 08:59:55;;;;;;;7.45;2.00;;;;;;;23.72;52.64;101327.66;5051093;28;20037;-72
2022/06/29 09:02:22;;;;;;;5.20;2.08;;;;;;;23.97;49.26;101327.59;5051413;28;20107;-72
2022/06/29 09:04:48;;;;;;;5.18;2.20;;;;;;;24.14;49.31;101325.53;5058234;28;20491;-72
2022/06/29 09:07:13;;;;;;;3.85;2.00;;;;;;;24.41;48.57;101317.34;5071790;28;20105;-72
2022/06/29 09:09:58;;;;;;;4.57;1.90;;;;;;;24.69;49.59;101308.13;5070975;28;20365;-72
2022/06/29 09:12:24;;;;;;;5.68;2.15;;;;;;;25.03;47.54;101310.88;5071812;28;20029;-72
2022/06/29 09:14:49;;;;;;;4.25;2.30;;;;;;;25.05;45.28;101307.13;5070319;28;20036;-72
2022/06/29 09:17:17;;;;;;;4.07;1.80;;;;;;;24.79;47.36;101316.25;5071946;28;20077;-72
2022/06/29 09:19:45;;;;;;;3.22;1.85;;;;;;;24.64;49.92;101318.28;5071269;28;20389;-72
2022/06/29 09:22:10;;;;;;;3.20;1.63;;;;;;;24.55;47.74;101313.63;5071194;28;20067;-72
2022/06/29 09:24:36;;;;;;;2.78;1.60;;;;;;;24.59;46.08;101307.09;5071191;28;20068;-73
2022/06/29 09:27:06;;;;;;;3.40;1.95;;;;;;;24.65;48.13;101318.16;5071257;28;20032;-72
2022/06/29 09:29:35;;;;;;;1.70;1.40;;;;;;;24.77;49.28;101316.38;5071002;28;20492;-72
2022/06/29 09:32:00;;;;;;;2.80;1.70;;;;;;;24.79;47.73;101308.25;5071398;28;20039;-72
2022/06/29 09:34:28;;;;;;;2.67;1.57;;;;;;;24.84;47.96;101306.94;5071438;28;20536;-72
2022/06/29 09:36:55;;;;;;;4.90;1.70;;;;;;;24.95;46.56;101307.00;5070375;28;20025;-72
2022/06/29 09:39:53;;;;;;;4.43;1.73;;;;;;;25.01;47.17;101313.66;5071434;28;20039;-72
2022/06/29 09:42:26;;;;;;;2.17;1.73;;;;;;;25.10;44.72;101307.59;5069639;28;20040;-72
2022/06/29 09:44:51;;;;;;;;;;;;;;;25.21;47.11;101310.34;5070767;28;20484;-72
2022/06/29 09:47:21;;;;;;;7.63;1.48;;;;;;;25.26;43.81;101307.31;5071536;28;19912;-72
2022/06/29 09:49:54;;;;;;;4.00;1.92;;;;;;;25.42;42.35;101301.63;5070620;28;20102;-72
2022/06/29 09:52:20;;;;;;;3.70;1.70;;;;;;;25.54;44.75;101308.66;5071374;28;20377;-77
2022/06/29 09:54:51;;;;;;;3.78;1.80;;;;;;;25.62;43.93;101310.72;5070997;28;20036;-77
2022/06/29 09:57:19;;;;;;;2.63;1.92;;;;;;;25.76;45.26;101310.44;5057783;28;20045;-77
2022/06/29 10:02:39;;;;;;;9.55;1.83;;;;;;;26.04;40.83;101306.44;5068304;28;20549;-77
2022/06/29 10:05:20;;;;;;;2.40;1.60;;;;;;;26.08;42.52;101309.72;5058024;28;20068;-77
2022/06/29 10:07:51;;;;;;;1.60;1.50;;;;;;;26.23;42.95;101310.28;5068581;28;20048;-77
2022/06/29 10:10:21;;;;;;;2.08;1.55;;;;;;;26.40;40.13;101312.41;5067358;28;20376;-77
2022/06/29 10:15:57;;;;;;;4.13;1.60;;;;;;;27.06;37.59;101301.53;5069916;28;20550;-77
2022/06/29 10:18:35;;;;;;;3.80;1.70;;;;;;;27.48;41.35;101301.50;5065455;28;20028;-77
2022/06/29 10:21:02;;;;;;;2.40;1.55;;;;;;;27.75;41.81;101292.84;5065515;28;20032;-77
2022/06/29 10:23:48;;;;;;;2.60;1.80;;;;;;;27.98;39.86;101282.75;5069678;28;20664;-77
2022/06/29 10:26:39;;;;;;;4.18;1.90;;;;;;;27.97;41.38;101289.97;5077942;28;20032;-77
2022/06/29 10:29:10;;;;;;;3.17;1.50;;;;;;;27.88;37.49;101287.25;5073671;28;20036;-77
2022/06/29 10:31:50;;;;;;;2.90;1.73;;;;;;;27.99;39.60;101273.72;5072472;28;20111;-77
2022/06/29 10:37:21;;;;;;;5.25;1.70;;;;;;;28.82;38.01;101275.03;5073030;28;20098;-77
2022/06/29 10:39:49;;;;;;;1.83;1.73;;;;;;;29.28;37.56;101276.06;5072365;28;20107;-77
2022/06/29 10:45:17;;;;;;;2.50;1.50;;;;;;;28.64;39.03;101269.53;5074064;28;20491;-77
2022/06/29 10:47:55;;;;;;;4.35;1.80;;;;;;;28.17;38.62;101266.72;5073916;28;20028;-77
2022/06/29 10:50:31;;;;;;;2.33;1.50;;;;;;;27.96;40.09;101263.31;5067772;28;20027;-77
2022/06/29 10:53:11;;;;;;;3.40;1.80;;;;;;;27.83;41.57;101260.91;5061516;28;20031;-77
2022/06/29 10:55:48;;;;;;;4.13;2.00;;;;;;;27.61;39.52;101269.13;5080564;28;20094;-77
2022/06/29 10:58:14;;;;;;;2.40;1.95;;;;;;;27.37;36.03;101259.59;5087754;28;20012;-77
2022/06/29 11:00:42;;;;;;;2.55;1.52;;;;;;;27.11;40.70;101261.84;5076178;28;20112;-77
2022/06/29 11:03:12;;;;;;;2.08;1.60;;;;;;;27.00;41.19;101260.06;5074166;28;20074;-77
2022/06/29 11:12:01;;;;;;;3.17;1.90;;;;;;;27.12;42.08;101257.34;5078123;28;20116;-78
2022/06/29 11:13:56;;;;;;;3.63;1.90;;;;;;;28.37;35.94;101247.94;5084140;28;20038;-77
2022/06/29 11:16:28;;;;;;;2.00;1.80;;;;;;;28.93;36.84;101247.16;5077216;28;20021;-76
2022/06/29 11:18:57;;;;;;;2.42;1.80;;;;;;;29.57;36.63;101245.53;5068624;28;20485;-77
2022/06/29 11:21:23;;;;;;;3.90;1.85;;;;;;;29.78;34.27;101237.22;5072952;28;20052;-77
2022/06/29 11:23:55;;;;;;;4.88;2.00;;;;;;;29.38;34.64;101236.56;5070622;28;20039;-77
2022/06/29 11:26:23;;;;;;;5.50;2.35;;;;;;;29.06;35.45;101246.88;5071383;28;20060;-76
2022/06/29 11:28:49;;;;;;;2.00;1.63;;;;;;;28.93;34.04;101248.00;5072365;28;20061;-76
2022/06/29 11:31:14;;;;;;;3.38;1.75;;;;;;;28.89;37.87;101235.03;5072403;28;20115;-76
2022/06/29 11:33:46;;;;;;;4.07;2.10;;;;;;;29.20;38.99;101237.50;5072872;28;20491;-77
2022/06/29 11:36:16;;;;;;;4.38;2.00;;;;;;;29.68;39.75;101228.38;5071340;28;20286;-77
2022/06/29 11:38:47;;;;;;;4.32;1.92;;;;;;;29.95;34.81;101227.47;5061068;28;20032;-77
2022/06/29 11:41:17;;;;;;;3.78;1.83;;;;;;;30.30;36.17;101235.56;5071198;28;20036;-77
2022/06/29 11:43:43;;;;;;;3.30;1.98;;;;;;;30.16;34.04;101235.25;5066297;28;20107;-77
2022/06/29 11:46:20;;;;;;;3.72;2.03;;;;;;;29.75;34.59;101238.38;5074677;28;20120;-77
2022/06/29 11:51:34;;;;;;;3.83;1.85;;;;;;;29.17;37.19;101227.94;5069455;28;20063;-77